Strona główna
METAR-TAF:

METAR-TAF

Lotnisko :

Waddington, Anglia

Szerokość geograficzna: 53-10N, Długość geograficzna: 000-31W, wysokość: 68 m

Aktualna obserwacja pogody

Raport powstał 1 godzina i 22 minut temu, godzina 00:50 UTC
Wiatr 22 kt od południowy zachód w porywach dochodzący do 34 kt
Temperatura 5°C
Wilgotność 75%
Ciśnienie 998 hPa
Widzialność 10 km lub więcej

METAR: EGXW 170050Z AUTO 22022G34KT 9999 SCT033/// 05/01 Q0998

czas: 02:12 (02:12 UTC)


TAF: brakujący

Obserwacja i prognoza pogody dla ponad 4000 lotnisk (raport METAR i TAF).

Dostępne stacje oznaczono żółtymi i czerwonymi punktami na mapie.

Najedź kursorem aby zobaczyć nazwę stacji.

Kliknij aby zobaczyć obserwacje i prognozy pogody.

Aby zmienić mapę: kliknij na zielony przycisk z czarnym krzyżykiem, aby powiększyć; na zielony przycisk z myślnikiem, aby pomniejszyć; na zielone strzałki, aby przejść do map sąsiednich.


METAR-TAF: